createdAt,value
2022-12-01T00:03:45.466Z,27.55
2022-12-01T00:06:18.033Z,25.88
2022-12-01T00:09:05.084Z,30.00
2022-12-01T00:11:33.236Z,28.75
2022-12-01T00:14:01.365Z,29.60
2022-12-01T00:16:28.306Z,31.35
2022-12-01T00:18:55.838Z,38.95
2022-12-01T00:21:24.368Z,29.80
2022-12-01T00:23:53.371Z,27.73
2022-12-01T00:26:21.256Z,34.67
2022-12-01T00:28:52.300Z,38.17
2022-12-01T00:31:19.456Z,30.38
2022-12-01T00:33:46.401Z,28.02
2022-12-01T00:36:13.223Z,28.77
2022-12-01T00:38:39.998Z,25.00
2022-12-01T00:41:06.854Z,26.55
2022-12-01T00:43:33.620Z,27.55
2022-12-01T00:46:00.456Z,28.42
2022-12-01T00:48:27.452Z,26.95
2022-12-01T00:50:55.514Z,23.75
2022-12-01T00:53:23.039Z,31.25
2022-12-01T00:55:50.041Z,31.60
2022-12-01T00:58:16.971Z,35.63
2022-12-01T01:00:43.841Z,35.78
2022-12-01T01:03:11.365Z,29.35
2022-12-01T01:08:10.879Z,36.40
2022-12-01T01:10:42.168Z,32.20
2022-12-01T01:13:09.581Z,32.97
2022-12-01T01:15:36.330Z,34.35
2022-12-01T01:18:03.597Z,27.88
2022-12-01T01:20:30.858Z,31.27
2022-12-01T01:22:57.928Z,36.78
2022-12-01T01:25:25.366Z,30.20
2022-12-01T01:27:52.215Z,25.52
2022-12-01T01:32:46.549Z,29.42
2022-12-01T01:35:13.310Z,30.95
2022-12-01T01:37:40.106Z,21.83
2022-12-01T01:40:07.630Z,33.40
2022-12-01T01:45:01.120Z,48.28
2022-12-01T01:47:35.655Z,23.40
2022-12-01T01:50:09.701Z,39.85
2022-12-01T01:52:42.599Z,43.80
2022-12-01T01:55:10.679Z,34.10
2022-12-01T01:57:38.219Z,32.15
2022-12-01T02:02:45.385Z,31.15
2022-12-01T02:05:20.198Z,38.55
2022-12-01T02:07:48.994Z,32.47
2022-12-01T02:10:22.210Z,36.13
2022-12-01T02:13:14.024Z,28.80
2022-12-01T02:16:20.675Z,29.85
2022-12-01T02:19:09.698Z,31.80
2022-12-01T02:21:36.468Z,32.10
2022-12-01T02:24:22.066Z,31.50
2022-12-01T02:27:25.219Z,35.50
2022-12-01T02:30:04.300Z,29.38
2022-12-01T02:32:35.891Z,21.63
2022-12-01T02:35:14.763Z,25.67
2022-12-01T02:37:59.332Z,32.58
2022-12-01T02:40:47.195Z,20.58
2022-12-01T02:43:13.945Z,33.92
2022-12-01T02:46:05.673Z,25.48
2022-12-01T02:48:39.073Z,26.65
2022-12-01T02:51:19.407Z,30.85
2022-12-01T02:53:46.587Z,29.00
2022-12-01T02:56:15.971Z,25.50
2022-12-01T02:58:43.723Z,36.63
2022-12-01T03:01:34.876Z,24.50
2022-12-01T03:04:13.898Z,30.40
2022-12-01T03:07:03.585Z,32.45
2022-12-01T03:09:42.496Z,39.30
2022-12-01T03:12:39.881Z,32.33
2022-12-01T03:15:18.493Z,32.42
2022-12-01T03:17:56.219Z,28.15
2022-12-01T03:20:33.647Z,28.40
2022-12-01T03:23:07.774Z,25.75
2022-12-01T03:25:36.358Z,26.08
2022-12-01T03:28:21.989Z,28.90
2022-12-01T03:30:55.650Z,14.02
2022-12-01T03:33:32.994Z,33.80
2022-12-01T03:38:31.802Z,21.90
2022-12-01T03:41:05.344Z,22.10
2022-12-01T03:43:36.318Z,26.15
2022-12-01T03:46:32.973Z,36.88
2022-12-01T03:48:59.819Z,34.33
2022-12-01T03:51:26.517Z,20.08
2022-12-01T03:54:01.844Z,34.45
2022-12-01T03:56:36.213Z,35.88
2022-12-01T03:59:06.068Z,44.22
2022-12-01T04:01:36.198Z,39.95
2022-12-01T04:04:12.440Z,39.47
2022-12-01T04:06:45.989Z,38.65
2022-12-01T04:09:12.969Z,41.67
2022-12-01T04:11:58.515Z,63.55
2022-12-01T04:14:25.524Z,56.65
2022-12-01T04:16:52.399Z,25.83
2022-12-01T04:19:19.142Z,33.25
2022-12-01T04:21:45.929Z,39.28
2022-12-01T04:24:13.780Z,28.52
2022-12-01T04:26:41.901Z,33.38
2022-12-01T04:29:10.794Z,41.65
2022-12-01T04:31:37.668Z,36.30
2022-12-01T04:34:05.370Z,32.70
2022-12-01T04:36:34.146Z,34.08
2022-12-01T04:39:01.657Z,27.80
2022-12-01T04:43:55.796Z,30.02
2022-12-01T04:46:23.729Z,32.45
2022-12-01T04:48:50.969Z,33.03
2022-12-01T04:51:18.022Z,41.00
2022-12-01T04:53:44.857Z,39.35
2022-12-01T04:56:11.613Z,40.42
2022-12-01T04:58:38.807Z,23.17
2022-12-01T05:01:08.150Z,37.97
2022-12-01T05:03:39.402Z,28.83
2022-12-01T05:06:11.160Z,33.10
2022-12-01T05:08:38.125Z,38.75
2022-12-01T05:11:09.087Z,34.50
2022-12-01T05:13:40.771Z,39.53
2022-12-01T05:16:12.848Z,33.67
2022-12-01T05:18:40.648Z,36.30
2022-12-01T05:21:09.815Z,50.65
2022-12-01T05:23:38.366Z,43.60
2022-12-01T05:26:07.624Z,36.50
2022-12-01T05:28:35.312Z,39.03
2022-12-01T05:31:02.491Z,38.22
2022-12-01T05:33:30.209Z,40.55
2022-12-01T05:35:57.019Z,27.98
2022-12-01T05:38:23.849Z,36.78
2022-12-01T05:40:55.602Z,27.40
2022-12-01T05:43:28.560Z,23.02
2022-12-01T05:45:56.580Z,30.45
2022-12-01T05:48:24.150Z,23.98
2022-12-01T05:53:18.369Z,19.10
2022-12-01T05:55:45.458Z,31.48
2022-12-01T05:58:13.581Z,22.88
2022-12-01T06:00:45.739Z,30.92
2022-12-01T06:03:13.723Z,29.17
2022-12-01T06:05:40.726Z,27.48
2022-12-01T06:08:07.678Z,28.05
2022-12-01T06:10:34.656Z,28.00
2022-12-01T06:13:01.469Z,25.75
2022-12-01T06:15:28.381Z,30.63
2022-12-01T06:17:58.422Z,29.83
2022-12-01T06:20:25.232Z,32.65
2022-12-01T06:22:52.107Z,25.38
2022-12-01T06:25:18.884Z,22.25
2022-12-01T06:27:45.632Z,26.30
2022-12-01T06:30:12.749Z,32.95
2022-12-01T06:32:39.488Z,27.23
2022-12-01T06:35:06.779Z,27.17
2022-12-01T06:37:33.695Z,27.50
2022-12-01T06:40:00.565Z,22.52
2022-12-01T06:42:30.473Z,20.85
2022-12-01T06:44:57.319Z,30.90
2022-12-01T06:47:24.053Z,31.77
2022-12-01T06:49:51.309Z,24.70
2022-12-01T06:54:45.335Z,27.30
2022-12-01T06:57:12.207Z,20.45
2022-12-01T06:59:39.251Z,29.35
2022-12-01T07:02:06.406Z,24.75
2022-12-01T07:04:33.466Z,26.70
2022-12-01T07:07:00.274Z,23.20
2022-12-01T07:09:27.265Z,14.48
2022-12-01T07:11:54.061Z,23.10
2022-12-01T07:14:24.066Z,20.45
2022-12-01T07:16:51.140Z,20.50
2022-12-01T07:19:18.137Z,20.63
2022-12-01T07:21:45.172Z,25.25
2022-12-01T07:24:12.547Z,23.23
2022-12-01T07:26:40.992Z,22.67
2022-12-01T07:29:09.196Z,18.95
2022-12-01T07:31:37.499Z,17.52
2022-12-01T07:34:05.086Z,27.08
2022-12-01T07:38:58.570Z,10.57
2022-12-01T07:41:25.391Z,19.80
2022-12-01T07:43:52.204Z,29.27
2022-12-01T07:46:23.521Z,21.13
2022-12-01T07:48:51.805Z,23.67
2022-12-01T07:51:19.149Z,18.83
2022-12-01T07:53:47.603Z,15.93
2022-12-01T07:56:14.517Z,17.63
2022-12-01T07:58:41.639Z,14.32
2022-12-01T08:01:09.357Z,25.85
2022-12-01T08:03:36.858Z,18.65
2022-12-01T08:06:05.237Z,13.82
2022-12-01T08:08:33.953Z,27.20
2022-12-01T08:11:03.758Z,15.32
2022-12-01T08:13:30.763Z,14.77
2022-12-01T08:15:57.758Z,23.77
2022-12-01T08:18:24.783Z,18.60
2022-12-01T08:20:51.632Z,14.55
2022-12-01T08:23:18.418Z,19.13
2022-12-01T08:25:45.172Z,26.40
2022-12-01T08:28:12.033Z,19.25
2022-12-01T08:30:38.883Z,18.48
2022-12-01T08:33:05.865Z,14.05
2022-12-01T08:35:36.053Z,12.60
2022-12-01T08:38:03.423Z,22.48
2022-12-01T08:40:30.709Z,16.75
2022-12-01T08:42:57.577Z,16.52
2022-12-01T08:45:24.373Z,16.42
2022-12-01T08:47:52.798Z,18.13
2022-12-01T08:50:19.555Z,16.20
2022-12-01T08:52:46.439Z,10.50
2022-12-01T08:55:13.220Z,15.48
2022-12-01T08:57:40.198Z,10.45
2022-12-01T09:00:07.691Z,20.40
2022-12-01T09:05:01.592Z,18.13
2022-12-01T09:07:28.501Z,17.55
2022-12-01T09:09:55.327Z,21.23
2022-12-01T09:12:22.319Z,24.20
2022-12-01T09:14:49.638Z,15.55
2022-12-01T09:17:17.560Z,22.77
2022-12-01T09:19:44.624Z,23.52
2022-12-01T09:22:11.937Z,20.92
2022-12-01T09:24:39.020Z,25.02
2022-12-01T09:27:06.208Z,18.05
2022-12-01T09:29:33.289Z,22.02
2022-12-01T09:32:00.689Z,23.33
2022-12-01T09:34:28.997Z,24.45
2022-12-01T09:36:57.571Z,23.20
2022-12-01T09:39:24.735Z,23.63
2022-12-01T09:42:09.183Z,30.42
2022-12-01T09:44:45.426Z,26.65
2022-12-01T09:47:31.579Z,30.38
2022-12-01T09:50:04.626Z,29.02
2022-12-01T09:52:48.562Z,35.20
2022-12-01T09:55:20.878Z,33.22
2022-12-01T09:57:50.133Z,28.27
2022-12-01T10:00:24.274Z,44.95
2022-12-01T10:02:57.104Z,30.25
2022-12-01T10:05:28.891Z,33.05
2022-12-01T10:08:07.382Z,32.97
2022-12-01T10:10:46.868Z,41.95
2022-12-01T10:13:16.438Z,30.98
2022-12-01T10:16:05.053Z,33.50
2022-12-01T10:18:52.472Z,39.85
2022-12-01T10:21:38.001Z,30.33
2022-12-01T10:24:17.809Z,38.67
2022-12-01T10:26:51.776Z,41.58
2022-12-01T10:29:39.127Z,38.20
2022-12-01T10:34:41.187Z,46.85
2022-12-01T10:37:21.179Z,40.17
2022-12-01T10:39:50.533Z,44.35
2022-12-01T10:42:36.174Z,48.28
2022-12-01T10:45:15.128Z,45.42
2022-12-01T10:48:10.747Z,47.08
2022-12-01T10:50:37.659Z,50.38
2022-12-01T10:53:04.553Z,50.50
2022-12-01T10:55:40.894Z,33.28
2022-12-01T10:58:16.968Z,48.35
2022-12-01T11:00:59.561Z,45.08
2022-12-01T11:03:35.915Z,40.17
2022-12-01T11:06:06.020Z,51.30
2022-12-01T11:08:46.485Z,49.53
2022-12-01T11:11:33.523Z,46.13
2022-12-01T11:14:06.756Z,42.55
2022-12-01T11:16:37.402Z,52.22
2022-12-01T11:19:10.376Z,44.92
2022-12-01T11:21:50.742Z,45.45
2022-12-01T11:24:30.028Z,47.00
2022-12-01T11:26:58.700Z,49.53
2022-12-01T11:29:37.880Z,46.90
2022-12-01T11:32:26.773Z,45.00
2022-12-01T11:35:11.058Z,38.47
2022-12-01T11:37:50.556Z,34.65
2022-12-01T11:40:33.637Z,37.45
2022-12-01T11:43:04.686Z,41.97
2022-12-01T11:45:34.816Z,37.08
2022-12-01T11:48:22.003Z,46.10
2022-12-01T11:53:37.351Z,49.47
2022-12-01T11:56:28.521Z,47.03
2022-12-01T11:59:05.344Z,46.58
2022-12-01T12:01:34.997Z,39.08
2022-12-01T12:04:08.545Z,60.97
2022-12-01T12:06:50.995Z,45.47
2022-12-01T12:09:30.962Z,44.60
2022-12-01T12:12:15.707Z,39.53
2022-12-01T12:14:48.446Z,37.72
2022-12-01T12:17:28.430Z,33.97
2022-12-01T12:20:14.602Z,39.47
2022-12-01T12:23:04.957Z,26.57
2022-12-01T12:25:53.287Z,37.65
2022-12-01T12:28:23.088Z,41.75
2022-12-01T12:31:08.928Z,38.45
2022-12-01T12:33:51.757Z,38.20
2022-12-01T12:36:57.117Z,37.90
2022-12-01T12:39:54.692Z,34.72
2022-12-01T12:42:39.448Z,44.05
2022-12-01T12:45:26.165Z,33.05
2022-12-01T12:47:58.968Z,38.97
2022-12-01T12:50:40.077Z,36.90
2022-12-01T12:53:15.620Z,35.63
2022-12-01T12:55:46.756Z,38.45
2022-12-01T12:58:28.898Z,36.90
2022-12-01T13:01:09.510Z,36.13
2022-12-01T13:03:55.372Z,30.50
2022-12-01T13:06:32.374Z,28.65
2022-12-01T13:09:15.146Z,34.72
2022-12-01T13:11:51.609Z,39.03
2022-12-01T13:14:36.913Z,33.17
2022-12-01T13:17:14.091Z,31.08
2022-12-01T13:19:42.758Z,30.50
2022-12-01T13:22:13.234Z,33.78
2022-12-01T13:24:40.448Z,32.15
2022-12-01T13:27:13.570Z,42.38
2022-12-01T13:29:46.107Z,34.47
2022-12-01T13:32:38.032Z,28.13
2022-12-01T13:35:20.635Z,37.42
2022-12-01T13:37:47.997Z,34.72
2022-12-01T13:40:31.301Z,35.47
2022-12-01T13:43:10.533Z,37.58
2022-12-01T13:45:39.886Z,36.17
2022-12-01T13:48:26.242Z,33.00
2022-12-01T13:50:55.165Z,34.38
2022-12-01T13:53:54.052Z,32.22
2022-12-01T13:56:25.808Z,37.05
2022-12-01T13:58:54.507Z,31.98
2022-12-01T14:01:21.813Z,36.50
2022-12-01T14:04:10.833Z,35.50
2022-12-01T14:06:49.273Z,38.47
2022-12-01T14:09:32.916Z,35.42
2022-12-01T14:12:15.583Z,30.40
2022-12-01T14:14:53.637Z,35.22
2022-12-01T14:17:38.979Z,33.30
2022-12-01T14:20:28.038Z,37.85
2022-12-01T14:23:13.521Z,31.17
2022-12-01T14:25:41.459Z,40.67
2022-12-01T14:28:17.299Z,39.80
2022-12-01T14:30:45.757Z,47.42
2022-12-01T14:36:01.157Z,33.22
2022-12-01T14:38:28.709Z,40.10
2022-12-01T14:43:40.985Z,42.80
2022-12-01T14:46:11.209Z,37.60
2022-12-01T14:48:45.681Z,36.78
2022-12-01T14:51:26.416Z,41.90
2022-12-01T14:53:54.871Z,38.83
2022-12-01T14:56:24.050Z,40.55
2022-12-01T14:59:15.555Z,40.90
2022-12-01T15:01:42.474Z,37.78
2022-12-01T15:04:09.251Z,36.05
2022-12-01T15:06:37.534Z,25.92
2022-12-01T15:09:32.305Z,34.25
2022-12-01T15:12:03.470Z,39.65
2022-12-01T15:14:37.168Z,36.95
2022-12-01T15:17:06.062Z,33.88
2022-12-01T15:19:38.960Z,50.10
2022-12-01T15:22:15.598Z,36.45
2022-12-01T15:24:43.490Z,22.40
2022-12-01T15:27:29.401Z,33.13
2022-12-01T15:29:58.247Z,36.17
2022-12-01T15:32:27.006Z,42.45
2022-12-01T15:34:55.760Z,42.08
2022-12-01T15:37:24.993Z,40.22
2022-12-01T15:40:35.699Z,47.22
2022-12-01T15:42:45.069Z,38.20
2022-12-01T15:45:14.721Z,30.42
2022-12-01T15:47:43.320Z,40.15
2022-12-01T15:50:49.305Z,38.25
2022-12-01T15:53:26.860Z,38.88
2022-12-01T15:55:58.962Z,40.15
2022-12-01T15:58:30.299Z,35.30
2022-12-01T16:01:05.415Z,35.33
2022-12-01T16:03:53.609Z,36.53
2022-12-01T16:06:26.165Z,38.63
2022-12-01T16:09:05.940Z,33.75
2022-12-01T16:11:33.333Z,25.55
2022-12-01T16:14:22.174Z,34.67
2022-12-01T16:16:50.931Z,29.33
2022-12-01T16:19:17.709Z,26.23
2022-12-01T16:21:56.333Z,35.78
2022-12-01T16:24:31.298Z,28.40
2022-12-01T16:27:00.908Z,23.15
2022-12-01T16:29:29.904Z,36.92
2022-12-01T16:32:23.900Z,31.63
2022-12-01T16:34:53.030Z,30.27
2022-12-01T16:37:22.036Z,30.65
2022-12-01T16:39:49.078Z,34.80
2022-12-01T16:42:18.918Z,34.70
2022-12-01T16:44:46.438Z,27.33
2022-12-01T16:47:24.880Z,24.00
2022-12-01T16:49:52.179Z,29.58
2022-12-01T16:52:43.716Z,29.95
2022-12-01T16:55:28.076Z,37.33
2022-12-01T16:57:55.403Z,27.35
2022-12-01T17:00:23.304Z,32.30
2022-12-01T17:02:50.529Z,30.65
2022-12-01T17:05:17.364Z,38.90
2022-12-01T17:07:44.429Z,41.47
2022-12-01T17:10:11.817Z,29.25
2022-12-01T17:12:38.573Z,29.80
2022-12-01T17:15:05.695Z,34.80
2022-12-01T17:17:32.600Z,34.50
2022-12-01T17:19:59.427Z,32.40
2022-12-01T17:22:26.190Z,23.80
2022-12-01T17:24:54.739Z,21.83
2022-12-01T17:27:23.225Z,32.33
2022-12-01T17:29:50.075Z,33.08
2022-12-01T17:32:17.137Z,23.48
2022-12-01T17:34:43.902Z,31.30
2022-12-01T17:37:12.105Z,21.10
2022-12-01T17:39:40.510Z,32.10
2022-12-01T17:42:07.335Z,24.10
2022-12-01T17:44:34.207Z,25.10
2022-12-01T17:47:01.010Z,31.35
2022-12-01T17:49:27.773Z,34.50
2022-12-01T17:51:54.548Z,26.65
2022-12-01T17:54:21.398Z,32.65
2022-12-01T17:56:48.233Z,20.77
2022-12-01T17:59:15.137Z,27.63
2022-12-01T18:01:43.122Z,20.60
2022-12-01T18:04:10.149Z,31.40
2022-12-01T18:06:36.986Z,27.33
2022-12-01T18:09:03.932Z,19.88
2022-12-01T18:11:31.689Z,28.67
2022-12-01T18:13:59.900Z,24.27
2022-12-01T18:16:32.128Z,15.45
2022-12-01T18:19:01.439Z,17.50
2022-12-01T18:21:29.091Z,17.25
2022-12-01T18:23:58.294Z,23.40
2022-12-01T18:26:26.467Z,16.23
2022-12-01T18:29:15.632Z,18.15
2022-12-01T18:31:43.612Z,24.90
2022-12-01T18:34:11.765Z,21.00
2022-12-01T18:36:40.535Z,25.20
2022-12-01T18:39:08.887Z,15.20
2022-12-01T18:41:36.003Z,20.10
2022-12-01T18:44:03.281Z,24.83
2022-12-01T18:46:30.200Z,28.55
2022-12-01T18:49:01.800Z,22.15
2022-12-01T18:51:30.805Z,28.80
2022-12-01T18:53:59.222Z,39.55
2022-12-01T18:56:26.656Z,32.22
2022-12-01T18:58:55.418Z,29.52
2022-12-01T19:01:32.140Z,28.00
2022-12-01T19:04:02.147Z,27.17
2022-12-01T19:06:30.250Z,31.13
2022-12-01T19:09:01.535Z,22.88
2022-12-01T19:11:33.326Z,31.67
2022-12-01T19:14:02.194Z,22.48
2022-12-01T19:16:30.931Z,26.70
2022-12-01T19:18:57.830Z,24.27
2022-12-01T19:21:24.569Z,23.05
2022-12-01T19:23:52.873Z,32.92
2022-12-01T19:26:22.043Z,29.35
2022-12-01T19:28:49.390Z,30.92
2022-12-01T19:31:24.729Z,26.50
2022-12-01T19:33:53.517Z,29.10
2022-12-01T19:36:23.426Z,37.17
2022-12-01T19:38:51.408Z,20.15
2022-12-01T19:43:47.968Z,25.42
2022-12-01T19:46:17.423Z,39.67
2022-12-01T19:48:45.196Z,26.80
2022-12-01T19:53:53.534Z,25.30
2022-12-01T19:56:20.587Z,22.55
2022-12-01T19:58:47.422Z,24.73
2022-12-01T20:01:16.918Z,22.77
2022-12-01T20:03:48.430Z,14.68
2022-12-01T20:06:24.423Z,18.65
2022-12-01T20:08:52.425Z,14.77
2022-12-01T20:11:19.565Z,17.75
2022-12-01T20:13:47.715Z,23.90
2022-12-01T20:16:17.320Z,12.95
2022-12-01T20:18:44.571Z,17.35
2022-12-01T20:21:17.479Z,20.40
2022-12-01T20:23:47.114Z,21.60
2022-12-01T20:26:16.220Z,20.52
2022-12-01T20:28:45.006Z,20.92
2022-12-01T20:31:26.287Z,21.80
2022-12-01T20:33:55.121Z,14.10
2022-12-01T20:36:22.578Z,28.10
2022-12-01T20:41:17.592Z,25.40
2022-12-01T20:43:44.392Z,19.40
2022-12-01T20:46:11.948Z,16.90
2022-12-01T20:53:35.888Z,20.48
2022-12-01T20:56:07.619Z,18.02
2022-12-01T20:58:37.729Z,27.10
2022-12-01T21:01:13.949Z,23.25
2022-12-01T21:03:42.759Z,22.88
2022-12-01T21:06:10.908Z,25.52
2022-12-01T21:08:39.109Z,22.75
2022-12-01T21:11:08.297Z,22.73
2022-12-01T21:13:44.501Z,19.95
2022-12-01T21:16:22.553Z,30.15
2022-12-01T21:19:01.143Z,23.83
2022-12-01T21:21:31.024Z,27.08
2022-12-01T21:24:22.168Z,29.27
2022-12-01T21:27:01.434Z,24.88
2022-12-01T21:29:44.674Z,27.75
2022-12-01T21:32:26.942Z,31.27
2022-12-01T21:34:55.407Z,28.30
2022-12-01T21:37:24.367Z,28.63
2022-12-01T21:39:52.771Z,25.77
2022-12-01T21:42:26.515Z,27.67
2022-12-01T21:44:55.467Z,27.23
2022-12-01T21:47:27.414Z,28.60
2022-12-01T21:49:57.455Z,28.23
2022-12-01T21:52:39.448Z,30.77
2022-12-01T21:55:15.220Z,28.83
2022-12-01T21:57:47.274Z,23.98
2022-12-01T22:00:28.005Z,24.65
2022-12-01T22:03:03.989Z,28.30
2022-12-01T22:05:36.909Z,27.52
2022-12-01T22:08:23.058Z,26.92
2022-12-01T22:10:57.795Z,19.47
2022-12-01T22:13:29.565Z,24.08
2022-12-01T22:15:56.991Z,30.55
2022-12-01T22:18:29.485Z,30.23
2022-12-01T22:20:56.591Z,25.95
2022-12-01T22:23:32.877Z,27.73
2022-12-01T22:25:59.885Z,28.38
2022-12-01T22:28:26.697Z,18.73
2022-12-01T22:30:54.730Z,25.58
2022-12-01T22:33:23.854Z,26.00
2022-12-01T22:35:52.763Z,28.30
2022-12-01T22:38:32.369Z,29.63
2022-12-01T22:41:14.473Z,43.35
2022-12-01T22:43:59.590Z,29.15
2022-12-01T22:46:32.332Z,27.77
2022-12-01T22:49:06.402Z,20.52
2022-12-01T22:51:37.996Z,24.50
2022-12-01T22:54:25.159Z,31.98
2022-12-01T22:59:36.028Z,24.92
2022-12-01T23:02:20.432Z,26.58
2022-12-01T23:04:49.522Z,28.25
2022-12-01T23:07:30.217Z,27.45
2022-12-01T23:10:04.556Z,28.13
2022-12-01T23:12:33.689Z,33.10
2022-12-01T23:15:25.437Z,29.02
2022-12-01T23:17:52.404Z,31.60
2022-12-01T23:20:33.162Z,23.23
2022-12-01T23:23:06.507Z,32.08
2022-12-01T23:25:34.705Z,25.20
2022-12-01T23:28:04.927Z,24.35
2022-12-01T23:30:31.932Z,28.65
2022-12-01T23:33:21.783Z,25.25
2022-12-01T23:35:56.177Z,29.45
2022-12-01T23:38:44.972Z,36.53
2022-12-01T23:41:40.754Z,25.10
2022-12-01T23:44:22.041Z,25.85
2022-12-01T23:46:51.520Z,32.10
2022-12-01T23:49:24.270Z,34.38
2022-12-01T23:51:53.691Z,26.30
2022-12-01T23:54:33.039Z,34.50
2022-12-01T23:57:18.970Z,23.25
2022-12-01T23:59:45.865Z,24.88
